Terminal Aerodrome Forecast
Issued by NWS

Home | Current Version | Previous Version | Text Only | Print | Product List | Glossary On
Versions: 1 2 3 4 5 6 7 8 9 10 11 12 13 14 15 16 17
682
FTUS43 KGRB 252320
TAFCWA
TAF
KCWA 252320Z 2600/2624 26009G16KT P6SM FEW045
     FM260100 28005KT P6SM SCT200
     FM261500 27007KT P6SM SCT045
      AMD LTD TO CLD VIS AND WIND 2603/2611=

USA.gov is the U.S. government's official web portal to all federal, state and local government web resources and services.